Time;durP1;ratioP1;P1;durP2;ratioP2;P2;SDS_P1;SDS_P2;PMS_P1;PMS_P2;Temp;Humidity;BMP_temperature;BMP_pressure;BME280_temperature;BME280_humidity;BME280_pressure;Samples;Min_cycle;Max_cycle;Signal;HPM_P1;HPM_P2
2022/03/25 00:01:07;;;;;;;;;;;;;;;8.51;59.68;100656.25;4410479;32;20011;-93
2022/03/25 00:03:32;;;;;;;;;;;;;;;8.28;59.67;100659.91;4410358;32;19998;-92
2022/03/25 00:05:58;;;;;;;;;;;;;;;8.40;59.67;100660.69;4409206;32;19977;-86
2022/03/25 00:08:23;;;;;;;;;;;;;;;8.41;59.67;100652.91;4422069;32;19985;-89
2022/03/25 00:10:48;;;;;;;;;;;;;;;8.34;59.67;100651.25;4421272;32;20024;-88
2022/03/25 00:13:14;;;;;;;;;;;;;;;8.36;59.67;100651.22;4408491;32;20092;-85
2022/03/25 00:15:39;;;;;;;;;;;;;;;8.42;59.67;100653.75;4422551;32;20038;-86
2022/03/25 00:18:04;;;;;;;;;;;;;;;8.13;59.65;100660.03;4422696;32;20382;-89
2022/03/25 00:20:29;;;;;;;;;;;;;;;8.11;59.65;100651.41;4408503;32;20037;-90
2022/03/25 00:22:55;;;;;;;;;;;;;;;8.14;59.66;100653.97;4408582;32;20292;-88
2022/03/25 00:25:20;;;;;;;;;;;;;;;8.03;59.65;100658.34;4421044;32;20043;-89
2022/03/25 00:27:45;;;;;;;;;;;;;;;7.85;59.64;100655.91;4421407;32;20019;-85
2022/03/25 00:30:11;;;;;;;;;;;;;;;7.88;59.65;100651.56;4422505;32;19998;-90
2022/03/25 00:32:37;;;;;;;;;;;;;;;7.79;59.64;100649.00;4410207;32;20049;-91
2022/03/25 00:35:02;;;;;;;;;;;;;;;7.98;59.65;100654.94;4409626;32;19993;-90
2022/03/25 00:37:27;;;;;;;;;;;;;;;7.88;59.65;100654.16;4408772;32;20274;-91
2022/03/25 00:39:53;;;;;;;;;;;;;;;7.88;59.65;100655.88;4410148;32;19999;-91
2022/03/25 00:42:18;;;;;;;;;;;;;;;7.81;59.64;100652.47;4409369;32;20045;-93
2022/03/25 00:44:44;;;;;;;;;;;;;;;7.91;59.65;100648.06;4410569;32;19978;-93
2022/03/25 00:47:09;;;;;;;;;;;;;;;7.85;59.64;100651.59;4410345;32;20267;-93
2022/03/25 00:49:35;;;;;;;;;;;;;;;7.79;59.64;100655.91;4410434;32;20057;-92
2022/03/25 00:52:26;;;;;;;;;;;;;;;7.46;59.62;100655.25;4409752;32;20001;-94
2022/03/25 00:54:53;;;;;;;;;;;;;;;7.51;59.62;100656.06;4394965;32;19982;-89
2022/03/25 00:57:32;;;;;;;;;;;;;;;7.42;59.62;100653.53;4423548;32;19970;-94
2022/03/25 00:59:57;;;;;;;;;;;;;;;7.47;59.62;100653.50;4421613;32;20612;-90
2022/03/25 01:02:57;;;;;;;;;;;;;;;7.38;59.61;100652.69;4423394;32;19985;-93
2022/03/25 01:05:23;;;;;;;;;;;;;;;7.37;59.61;100650.13;4391487;32;20034;-89
2022/03/25 01:07:48;;;;;;;;;;;;;;;7.46;59.61;100649.22;4409642;32;19978;-89
2022/03/25 01:10:13;;;;;;;;;;;;;;;7.35;59.61;100644.09;4409451;32;20005;-93
2022/03/25 01:12:39;;;;;;;;;;;;;;;7.38;59.60;100642.34;4411259;32;20012;-94
2022/03/25 01:15:04;;;;;;;;;;;;;;;7.33;59.61;100641.50;4411460;32;20259;-94
2022/03/25 01:17:29;;;;;;;;;;;;;;;7.18;59.61;100640.69;4410213;32;20021;-94
2022/03/25 01:19:55;;;;;;;;;;;;;;;7.30;59.61;100649.25;4410298;32;20050;-90
2022/03/25 01:22:20;;;;;;;;;;;;;;;7.20;59.60;100650.19;4410084;32;19993;-93
2022/03/25 01:24:45;;;;;;;;;;;;;;;7.18;59.60;100648.47;4410068;32;20084;-89
2022/03/25 01:27:11;;;;;;;;;;;;;;;7.17;59.60;100651.94;4408622;32;20043;-91
2022/03/25 01:29:36;;;;;;;;;;;;;;;7.04;59.60;100651.09;4408797;32;20009;-89
2022/03/25 01:32:02;;;;;;;;;;;;;;;7.02;59.58;100658.00;4420752;32;20315;-87
2022/03/25 01:34:27;;;;;;;;;;;;;;;6.95;59.59;100657.16;4407871;32;19990;-90
2022/03/25 01:36:52;;;;;;;;;;;;;;;6.79;59.59;100650.31;4420654;32;19982;-89
2022/03/25 01:39:17;;;;;;;;;;;;;;;6.90;59.58;100656.34;4420946;32;19982;-90
2022/03/25 01:41:43;;;;;;;;;;;;;;;6.72;59.58;100657.22;4407985;32;19996;-90
2022/03/25 01:44:09;;;;;;;;;;;;;;;6.75;59.58;100674.47;4416132;32;20008;-89
2022/03/25 01:46:35;;;;;;;;;;;;;;;6.90;59.58;100663.22;4409823;32;20359;-90
2022/03/25 01:49:00;;;;;;;;;;;;;;;6.76;59.57;100658.94;4407626;32;20038;-88
2022/03/25 01:51:41;;;;;;;;;;;;;;;6.82;59.58;100664.97;4427198;32;20614;-91
2022/03/25 01:54:11;;;;;;;;;;;;;;;6.65;59.57;100670.19;4423257;32;20362;-88
2022/03/25 01:56:44;;;;;;;;;;;;;;;6.58;59.57;100671.03;4438829;32;19973;-94
2022/03/25 01:59:10;;;;;;;;;;;;;;;6.33;59.55;100676.22;4411697;32;19994;-92
2022/03/25 02:01:35;;;;;;;;;;;;;;;6.23;59.55;100678.81;4397703;32;20013;-94
2022/03/25 02:04:01;;;;;;;;;;;;;;;6.17;59.55;100678.81;4397623;32;19989;-92
2022/03/25 02:06:26;;;;;;;;;;;;;;;6.21;59.55;100676.22;4397301;32;19981;-94
2022/03/25 02:08:51;;;;;;;;;;;;;;;6.14;59.54;100671.88;4398565;32;20335;-93
2022/03/25 02:11:18;;;;;;;;;;;;;;;6.09;59.54;100673.63;4398364;32;20000;-95
2022/03/25 02:13:43;;;;;;;;;;;;;;;5.89;59.52;100688.19;4397079;32;20705;-90
2022/03/25 02:16:09;;;;;;;;;;;;;;;5.83;59.53;100682.16;4396624;32;19978;-91
2022/03/25 02:22:13;;;;;;;;;;;;;;;5.90;59.53;100693.41;4379179;32;20064;-93
2022/03/25 02:24:45;;;;;;;;;;;;;;;5.87;59.52;100693.34;4409861;32;19961;-95
2022/03/25 02:27:19;;;;;;;;;;;;;;;6.06;59.54;100692.56;4410695;32;20626;-96
2022/03/25 02:41:18;;;;;;;;;;;;;;;;;;;;;
2022/03/25 02:50:40;;;;;;;;;;;;;;;5.89;59.52;100708.88;4395107;32;19962;-94
2022/03/25 02:53:23;;;;;;;;;;;;;;;;;;;;;
2022/03/25 02:55:58;;;;;;;;;;;;;;;5.69;59.51;100720.03;4407549;32;34755;-91
2022/03/25 02:58:24;;;;;;;;;;;;;;;5.90;59.53;100716.66;4422712;32;20006;-89
2022/03/25 03:00:49;;;;;;;;;;;;;;;5.75;59.52;100726.94;4409326;32;20012;-93
2022/03/25 03:03:14;;;;;;;;;;;;;;;5.68;59.51;100723.47;4409991;32;19990;-93
2022/03/25 03:06:00;;;;;;;;;;;;;;;5.64;59.51;100726.88;4408999;32;20006;-92
2022/03/25 03:08:25;;;;;;;;;;;;;;;5.64;59.51;100726.88;4423365;32;19978;-91
2022/03/25 03:10:50;;;;;;;;;;;;;;;5.47;59.50;100721.66;4425160;32;19982;-93
2022/03/25 03:13:19;;;;;;;;;;;;;;;5.43;59.49;100724.22;4425629;32;20010;-94
2022/03/25 03:15:53;;;;;;;;;;;;;;;5.43;59.50;100727.66;4426458;32;20005;-94
2022/03/25 03:18:24;;;;;;;;;;;;;;;5.33;59.50;100725.03;4426539;32;19988;-95
2022/03/25 03:20:49;;;;;;;;;;;;;;;5.10;59.48;100730.06;4424888;32;20006;-88
2022/03/25 03:23:14;;;;;;;;;;;;;;;5.13;59.48;100730.09;4420866;32;20346;-87
2022/03/25 03:25:40;;;;;;;;;;;;;;;5.01;59.48;100728.31;4423101;32;20007;-88
2022/03/25 03:28:05;;;;;;;;;;;;;;;5.09;59.48;100734.38;4421800;32;19986;-84
2022/03/25 03:30:30;;;;;;;;;;;;;;;5.12;59.48;100733.53;4423019;32;19997;-85
2022/03/25 03:32:57;;;;;;;;;;;;;;;5.06;59.48;100729.19;4421643;32;19997;-84
2022/03/25 03:35:23;;;;;;;;;;;;;;;5.00;59.47;100728.31;4421583;32;19998;-84
2022/03/25 03:37:48;;;;;;;;;;;;;;;5.05;59.48;100727.47;4422916;32;20008;-85
2022/03/25 03:40:14;;;;;;;;;;;;;;;4.85;59.46;100732.50;4421422;32;20029;-85
2022/03/25 03:42:39;;;;;;;;;;;;;;;4.99;59.47;100732.59;4422632;32;19994;-85
2022/03/25 03:45:06;;;;;;;;;;;;;;;5.04;59.48;100725.75;4422481;32;19992;-86
2022/03/25 03:47:31;;;;;;;;;;;;;;;4.78;59.46;100728.16;4421555;32;19978;-85
2022/03/25 03:49:56;;;;;;;;;;;;;;;4.73;59.46;100731.53;4408548;32;19978;-85
2022/03/25 03:52:23;;;;;;;;;;;;;;;4.82;59.47;100726.44;4405306;32;20077;-86
2022/03/25 03:54:48;;;;;;;;;;;;;;;4.72;59.46;100725.50;4392104;32;20037;-85
2022/03/25 03:57:14;;;;;;;;;;;;;;;4.94;59.46;100726.53;4390372;32;29749;-84
2022/03/25 03:59:39;;;;;;;;;;;;;;;4.50;59.45;100732.25;4390978;32;20296;-85
2022/03/25 04:02:04;;;;;;;;;;;;;;;4.63;59.45;100733.19;4391008;32;20028;-86
2022/03/25 04:04:30;;;;;;;;;;;;;;;4.58;59.45;100735.72;4391084;32;20001;-85
2022/03/25 04:06:55;;;;;;;;;;;;;;;4.64;59.45;100732.34;4390868;32;19978;-85
2022/03/25 04:09:20;;;;;;;;;;;;;;;4.72;59.46;100728.09;4378391;32;20327;-85
2022/03/25 04:11:45;;;;;;;;;;;;;;;4.80;59.46;100725.59;4390862;32;20005;-85
2022/03/25 04:14:11;;;;;;;;;;;;;;;4.75;59.46;100727.28;4392412;32;19994;-84
2022/03/25 04:16:36;;;;;;;;;;;;;;;4.89;59.46;100723.06;4392246;32;20005;-84
2022/03/25 04:19:01;;;;;;;;;;;;;;;4.74;59.46;100721.25;4392325;32;20002;-85
2022/03/25 04:21:27;;;;;;;;;;;;;;;4.82;59.47;100723.88;4390302;32;20042;-85
2022/03/25 04:23:52;;;;;;;;;;;;;;;4.85;59.46;100722.19;4377959;32;20930;-85
2022/03/25 04:26:17;;;;;;;;;;;;;;;4.82;59.47;100716.13;4390938;32;19995;-85
2022/03/25 04:28:42;;;;;;;;;;;;;;;4.87;59.47;100727.34;4390921;32;20029;-86
2022/03/25 04:31:07;;;;;;;;;;;;;;;5.02;59.47;100718.84;4390351;32;27840;-86
2022/03/25 04:33:35;;;;;;;;;;;;;;;4.90;59.46;100717.03;4378375;32;19987;-85
2022/03/25 04:36:01;;;;;;;;;;;;;;;4.91;59.46;100722.22;4391084;32;19997;-85
2022/03/25 04:38:26;;;;;;;;;;;;;;;5.01;59.47;100727.44;4378396;32;20398;-87
2022/03/25 04:40:51;;;;;;;;;;;;;;;4.78;59.45;100729.88;4391599;32;25702;-86
2022/03/25 04:43:16;;;;;;;;;;;;;;;4.71;59.45;100738.37;4378154;32;20034;-86
2022/03/25 04:45:41;;;;;;;;;;;;;;;4.67;59.45;100732.34;4378254;32;20018;-85
2022/03/25 04:48:10;;;;;;;;;;;;;;;4.79;59.46;100729.88;4390902;32;19989;-85
2022/03/25 04:50:36;;;;;;;;;;;;;;;4.88;59.47;100734.22;4390938;32;20371;-85
2022/03/25 04:53:01;;;;;;;;;;;;;;;5.00;59.47;100738.63;4378325;32;20042;-85
2022/03/25 04:55:26;;;;;;;;;;;;;;;4.67;59.45;100737.50;4391906;32;20307;-84
2022/03/25 04:57:51;;;;;;;;;;;;;;;4.83;59.46;100739.34;4390767;32;20021;-85
2022/03/25 05:00:17;;;;;;;;;;;;;;;4.71;59.45;100746.13;4391271;32;26157;-85
2022/03/25 05:02:42;;;;;;;;;;;;;;;4.65;59.45;100739.22;4391873;32;19982;-84
2022/03/25 05:05:07;;;;;;;;;;;;;;;4.74;59.45;100731.56;4390576;32;20034;-85
2022/03/25 05:07:33;;;;;;;;;;;;;;;4.93;59.46;100732.53;4390435;32;20340;-86
2022/03/25 05:09:59;;;;;;;;;;;;;;;4.68;59.45;100735.78;4378258;32;20006;-85
2022/03/25 05:12:24;;;;;;;;;;;;;;;4.82;59.46;100737.63;4390595;32;20016;-86
2022/03/25 05:14:49;;;;;;;;;;;;;;;5.04;59.47;100736.06;4390796;32;19990;-86
2022/03/25 05:17:15;;;;;;;;;;;;;;;4.92;59.47;100744.56;4390741;32;20009;-83
2022/03/25 05:19:41;;;;;;;;;;;;;;;4.98;59.47;100740.34;4392090;32;19994;-85
2022/03/25 05:22:07;;;;;;;;;;;;;;;5.27;59.49;100743.06;4392039;32;19983;-85
2022/03/25 05:24:32;;;;;;;;;;;;;;;5.23;59.49;100742.19;4390566;32;19978;-85
2022/03/25 05:26:59;;;;;;;;;;;;;;;5.40;59.50;100744.84;4391882;32;19997;-86
2022/03/25 05:29:24;;;;;;;;;;;;;;;5.73;59.51;100750.19;4377867;32;20021;-86
2022/03/25 05:31:49;;;;;;;;;;;;;;;5.82;59.51;100746.75;4389630;32;28363;-88
2022/03/25 05:34:14;;;;;;;;;;;;;;;5.89;59.52;100743.31;4377831;32;20045;-87
2022/03/25 05:36:40;;;;;;;;;;;;;;;6.09;59.53;100748.56;4390418;32;20025;-88
2022/03/25 05:39:05;;;;;;;;;;;;;;;6.19;59.54;100746.88;4390445;32;20029;-87
2022/03/25 05:41:31;;;;;;;;;;;;;;;6.22;59.54;100752.94;4390429;32;20001;-87
2022/03/25 05:43:56;;;;;;;;;;;;;;;6.35;59.55;100754.66;4390109;32;19998;-87
2022/03/25 05:46:21;;;;;;;;;;;;;;;6.47;59.56;100759.00;4389975;32;20022;-87
2022/03/25 05:48:46;;;;;;;;;;;;;;;6.75;59.57;100746.91;4390218;32;20002;-88
2022/03/25 05:51:12;;;;;;;;;;;;;;;6.81;59.58;100751.22;4377828;32;20464;-88
2022/03/25 05:53:38;;;;;;;;;;;;;;;6.99;59.58;100746.88;4377664;32;19982;-89
2022/03/25 05:56:05;;;;;;;;;;;;;;;7.20;59.59;100748.56;4377567;32;20013;-87
2022/03/25 05:58:36;;;;;;;;;;;;;;;7.37;59.61;100743.38;4390182;32;20334;-87
2022/03/25 06:01:05;;;;;;;;;;;;;;;7.49;59.62;100732.09;4390310;32;19991;-93
2022/03/25 06:03:32;;;;;;;;;;;;;;;7.63;59.63;100731.16;4392303;32;19982;-91
2022/03/25 06:05:58;;;;;;;;;;;;;;;7.86;59.64;100732.78;4406527;32;20330;-89
2022/03/25 06:08:23;;;;;;;;;;;;;;;7.72;59.63;100738.03;4408224;32;20028;-95
2022/03/25 06:11:17;;;;;;;;;;;;;;;7.89;59.64;100738.81;4408497;32;20323;-93
2022/03/25 06:13:46;;;;;;;;;;;;;;;8.08;59.65;100734.41;4408986;32;19993;-93
2022/03/25 06:16:12;;;;;;;;;;;;;;;8.68;59.69;100732.25;4407885;32;19985;-91
2022/03/25 06:18:37;;;;;;;;;;;;;;;8.58;59.67;100733.22;4408571;32;19997;-91
2022/03/25 06:21:02;;;;;;;;;;;;;;;8.66;59.67;100727.94;4408486;32;19982;-88
2022/03/25 06:23:28;;;;;;;;;;;;;;;8.72;59.68;100736.53;4407863;32;19982;-92
2022/03/25 06:28:41;;;;;;;;;;;;;;;9.05;59.71;100737.09;4391687;32;19990;-89
2022/03/25 06:31:08;;;;;;;;;;;;;;;9.18;59.70;100736.09;4406507;32;20000;-89
2022/03/25 06:33:33;;;;;;;;;;;;;;;9.31;59.71;100740.28;4406387;32;19990;-90
2022/03/25 06:35:58;;;;;;;;;;;;;;;9.60;59.73;100736.47;4406368;32;19994;-87
2022/03/25 06:38:24;;;;;;;;;;;;;;;9.75;59.74;100739.75;4406487;32;20005;-89
2022/03/25 06:40:49;;;;;;;;;;;;;;;9.83;59.74;100731.84;4406881;32;20252;-89
2022/03/25 06:43:54;;;;;;;;;;;;;;;10.05;59.76;100729.81;4408518;32;20004;-95
2022/03/25 06:46:19;;;;;;;;;;;;;;;10.29;59.77;100731.25;4360125;32;20014;-87
2022/03/25 06:48:44;;;;;;;;;;;;;;;10.70;59.80;100735.78;4387323;32;20038;-88
2022/03/25 06:51:10;;;;;;;;;;;;;;;10.95;59.81;100731.00;4406742;32;20021;-88
2022/03/25 06:53:35;;;;;;;;;;;;;;;11.21;59.82;100731.41;4406578;32;19978;-87
2022/03/25 06:56:01;;;;;;;;;;;;;;;11.43;59.83;100725.78;4406740;32;19985;-88
2022/03/25 06:58:26;;;;;;;;;;;;;;;11.47;59.84;100730.03;4407672;32;20016;-90
2022/03/25 07:00:52;;;;;;;;;;;;;;;11.85;59.86;100735.34;4406983;32;20049;-90
2022/03/25 07:03:18;;;;;;;;;;;;;;;12.24;59.89;100730.97;4407018;32;19993;-90
2022/03/25 07:05:43;;;;;;;;;;;;;;;12.44;59.89;100730.50;4408105;32;19985;-89
2022/03/25 07:08:09;;;;;;;;;;;;;;;12.57;59.89;100720.62;4406760;32;19978;-89
2022/03/25 07:10:34;;;;;;;;;;;;;;;12.77;59.91;100731.41;4406829;32;20000;-89
2022/03/25 07:12:59;;;;;;;;;;;;;;;13.10;59.92;100729.69;4406957;32;19989;-92
2022/03/25 07:15:25;;;;;;;;;;;;;;;13.26;59.93;100731.94;4406120;32;20020;-90
2022/03/25 07:17:52;;;;;;;;;;;;;;;13.40;59.95;100730.66;4380772;32;20012;-90
2022/03/25 07:20:17;;;;;;;;;;;;;;;13.59;59.96;100724.91;4381576;32;20032;-90
2022/03/25 07:22:43;;;;;;;;;;;;;;;13.87;59.97;100731.03;4381552;32;20306;-90
2022/03/25 07:25:09;;;;;;;;;;;;;;;13.96;59.98;100733.41;4394200;32;19986;-90
2022/03/25 07:27:34;;;;;;;;;;;;;;;14.18;59.99;100733.56;4406595;32;19986;-90
2022/03/25 07:30:00;;;;;;;;;;;;;;;14.27;59.99;100738.53;4381634;32;20272;-90
2022/03/25 07:32:25;;;;;;;;;;;;;;;14.43;60.00;100746.78;4381127;32;19997;-89
2022/03/25 07:34:51;;;;;;;;;;;;;;;14.74;60.02;100736.19;4381317;32;19994;-89
2022/03/25 07:37:16;;;;;;;;;;;;;;;14.82;60.02;100731.53;4381124;32;19998;-90
2022/03/25 07:39:42;;;;;;;;;;;;;;;15.00;60.02;100730.91;4394072;32;20028;-90
2022/03/25 07:42:07;;;;;;;;;;;;;;;15.02;60.03;100726.47;4393910;32;19998;-90
2022/03/25 07:44:34;;;;;;;;;;;;;;;15.20;60.03;100726.72;4380964;32;20004;-90
2022/03/25 07:46:59;;;;;;;;;;;;;;;15.40;60.05;100731.28;4407803;32;19997;-90
2022/03/25 07:49:24;;;;;;;;;;;;;;;15.51;60.06;100729.09;4381227;32;20009;-90
2022/03/25 07:51:50;;;;;;;;;;;;;;;15.52;60.05;100734.28;4393680;32;20495;-90
2022/03/25 07:54:16;;;;;;;;;;;;;;;15.68;60.06;100731.13;4381286;32;19986;-89
2022/03/25 07:56:42;;;;;;;;;;;;;;;15.72;60.07;100737.97;4393770;32;19986;-90
2022/03/25 07:59:11;;;;;;;;;;;;;;;15.72;60.07;100740.59;4406493;32;20016;-91
2022/03/25 08:01:36;;;;;;;;;;;;;;;15.85;60.08;100733.97;4393836;32;19982;-91
2022/03/25 08:04:01;;;;;;;;;;;;;;;15.85;60.08;100736.59;4380640;32;21128;-90
2022/03/25 08:06:26;;;;;;;;;;;;;;;15.71;60.07;100734.50;4381050;32;20002;-90
2022/03/25 08:08:52;;;;;;;;;;;;;;;15.80;60.07;100730.66;4393656;32;20025;-90
2022/03/25 08:11:20;;;;;;;;;;;;;;;15.91;60.08;100739.84;4380935;32;20276;-89
2022/03/25 08:13:47;;;;;;;;;;;;;;;16.08;60.09;100730.44;4393957;32;20097;-90
2022/03/25 08:16:14;;;;;;;;;;;;;;;16.10;60.09;100734.75;4381097;32;20047;-89
2022/03/25 08:18:39;;;;;;;;;;;;;;;16.15;60.10;100729.31;4381103;32;20358;-89
2022/03/25 08:21:05;;;;;;;;;;;;;;;16.42;60.11;100728.22;4407522;32;20009;-90
2022/03/25 08:28:59;;;;;;;;;;;;;;;16.73;60.12;100722.56;4395505;32;20016;-90
2022/03/25 08:31:24;;;;;;;;;;;;;;;17.00;60.15;100730.22;4407700;32;19994;-91
2022/03/25 08:33:50;;;;;;;;;;;;;;;17.08;60.15;100728.97;4393658;32;20370;-91
2022/03/25 08:36:15;;;;;;;;;;;;;;;17.32;60.16;100715.69;4393609;32;20343;-90
2022/03/25 08:38:41;;;;;;;;;;;;;;;17.36;60.16;100726.00;4393691;32;20024;-90
2022/03/25 08:41:06;;;;;;;;;;;;;;;17.47;60.17;100723.72;4393548;32;20069;-90
2022/03/25 08:43:31;;;;;;;;;;;;;;;17.56;60.17;100722.47;4407414;32;19990;-90
2022/03/25 08:45:56;;;;;;;;;;;;;;;17.65;60.17;100715.91;4393301;32;20040;-90
2022/03/25 08:48:22;;;;;;;;;;;;;;;17.54;60.18;100721.69;4406096;32;20463;-90
2022/03/25 08:50:47;;;;;;;;;;;;;;;17.83;60.18;100733.53;4393452;32;19985;-90
2022/03/25 08:53:12;;;;;;;;;;;;;;;18.06;60.19;100727.19;4380771;32;20025;-90
2022/03/25 08:55:37;;;;;;;;;;;;;;;18.17;60.21;100717.00;4380314;32;20006;-89
2022/03/25 08:58:03;;;;;;;;;;;;;;;18.14;60.21;100719.78;4393349;32;20001;-89
2022/03/25 09:00:28;;;;;;;;;;;;;;;18.14;60.21;100719.78;4393345;32;19986;-91
2022/03/25 09:02:53;;;;;;;;;;;;;;;18.10;60.20;100719.06;4393240;32;20004;-91
2022/03/25 09:05:19;;;;;;;;;;;;;;;18.36;60.21;100720.44;4393301;32;20002;-90
2022/03/25 09:07:44;;;;;;;;;;;;;;;18.34;60.20;100717.03;4393021;32;20333;-90
2022/03/25 09:10:10;;;;;;;;;;;;;;;18.44;60.22;100727.12;4380920;32;20260;-90
2022/03/25 09:12:35;;;;;;;;;;;;;;;18.62;60.23;100724.47;4393314;32;19987;-91
2022/03/25 09:15:01;;;;;;;;;;;;;;;18.77;60.24;100699.13;4380876;32;20058;-90
2022/03/25 09:17:26;;;;;;;;;;;;;;;18.65;60.22;100719.03;4393155;32;20009;-90
2022/03/25 09:19:51;;;;;;;;;;;;;;;18.39;60.22;100719.44;4393261;32;20044;-90
2022/03/25 09:22:17;;;;;;;;;;;;;;;18.50;60.22;100714.53;4407027;32;19986;-90
2022/03/25 09:24:42;;;;;;;;;;;;;;;18.83;60.25;100711.13;4380390;32;20068;-90
2022/03/25 09:27:07;;;;;;;;;;;;;;;18.95;60.25;100711.37;4380613;32;20279;-90
2022/03/25 09:29:32;;;;;;;;;;;;;;;18.98;60.25;100700.66;4392798;32;19990;-90
2022/03/25 09:31:58;;;;;;;;;;;;;;;19.12;60.26;100707.00;4392917;32;20000;-89
2022/03/25 09:37:07;;;;;;;;;;;;;;;18.82;60.24;100706.78;4395262;32;20000;-90
2022/03/25 09:39:32;;;;;;;;;;;;;;;19.17;60.26;100705.00;4406937;32;20071;-90
2022/03/25 09:41:58;;;;;;;;;;;;;;;19.23;60.27;100700.25;4405965;32;20036;-91
2022/03/25 09:44:23;;;;;;;;;;;;;;;19.42;60.27;100705.41;4380393;32;19986;-90
2022/03/25 09:46:50;;;;;;;;;;;;;;;19.51;60.28;100704.03;4406741;32;20040;-90
2022/03/25 09:49:16;;;;;;;;;;;;;;;19.45;60.28;100709.66;4392931;32;19978;-91
2022/03/25 09:51:41;;;;;;;;;;;;;;;19.47;60.28;100700.72;4405292;32;20323;-90
2022/03/25 09:54:06;;;;;;;;;;;;;;;19.53;60.29;100704.81;4392684;32;20009;-90
2022/03/25 09:56:34;;;;;;;;;;;;;;;19.25;60.27;100701.00;4392741;32;20000;-90
2022/03/25 09:59:00;;;;;;;;;;;;;;;19.52;60.27;100690.75;4392696;32;19986;-91
2022/03/25 10:01:25;;;;;;;;;;;;;;;19.71;60.29;100689.78;4380117;32;20077;-90
2022/03/25 10:03:51;;;;;;;;;;;;;;;19.87;60.30;100675.66;4392581;32;20461;-89
2022/03/25 10:06:16;;;;;;;;;;;;;;;20.12;60.31;100680.41;4379913;32;20005;-90
2022/03/25 10:08:42;;;;;;;;;;;;;;;20.09;60.31;100675.28;4392479;32;19990;-89
2022/03/25 10:11:18;;;;;;;;;;;;;;;20.29;60.32;100673.31;4405285;32;19977;-90
2022/03/25 10:13:43;;;;;;;;;;;;;;;20.56;60.34;100657.66;4392653;32;19986;-90
2022/03/25 10:16:28;;;;;;;;;;;;;;;20.58;60.33;100661.06;4392422;32;20346;-91
2022/03/25 10:18:53;;;;;;;;;;;;;;;20.58;60.33;100651.31;4392619;32;19979;-90
2022/03/25 10:21:19;;;;;;;;;;;;;;;20.85;60.35;100651.50;4392819;32;19998;-91
2022/03/25 10:23:45;;;;;;;;;;;;;;;21.10;60.37;100648.22;4392507;32;20021;-90
2022/03/25 10:26:10;;;;;;;;;;;;;;;21.27;60.38;100644.53;4392628;32;20354;-91
2022/03/25 10:28:43;;;;;;;;;;;;;;;21.19;60.37;100646.78;4379609;32;19977;-90
2022/03/25 10:31:13;;;;;;;;;;;;;;;21.16;60.37;100637.22;4380564;32;19987;-90
2022/03/25 10:33:44;;;;;;;;;;;;;;;21.15;60.37;100639.03;4406245;32;19983;-91
2022/03/25 10:36:10;;;;;;;;;;;;;;;21.08;60.37;100635.06;4406094;32;19986;-90
2022/03/25 10:39:06;;;;;;;;;;;;;;;21.05;60.36;100637.88;4379548;32;19982;-90
2022/03/25 10:41:41;;;;;;;;;;;;;;;21.05;60.36;100642.31;4380426;32;20002;-90
2022/03/25 10:44:08;;;;;;;;;;;;;;;20.98;60.35;100638.34;4392166;32;19995;-91
2022/03/25 10:46:39;;;;;;;;;;;;;;;21.05;60.36;100637.88;4379651;32;20017;-91
2022/03/25 10:49:06;;;;;;;;;;;;;;;21.04;60.36;100624.72;4404871;32;20002;-92
2022/03/25 10:51:32;;;;;;;;;;;;;;;21.03;60.36;100637.13;4391936;32;20351;-89
2022/03/25 10:53:58;;;;;;;;;;;;;;;21.05;60.36;100626.44;4381317;32;19986;-92
2022/03/25 10:56:23;;;;;;;;;;;;;;;21.21;60.37;100631.66;4381677;32;20006;-91
2022/03/25 10:58:56;;;;;;;;;;;;;;;21.28;60.37;100625.91;4381567;32;20053;-91
2022/03/25 11:01:21;;;;;;;;;;;;;;;21.51;60.38;100620.94;4394201;32;20053;-91
2022/03/25 11:03:48;;;;;;;;;;;;;;;21.58;60.39;100615.19;4393963;32;20014;-89
2022/03/25 11:06:17;;;;;;;;;;;;;;;21.51;60.39;100624.44;4393971;32;20062;-90
2022/03/25 11:08:43;;;;;;;;;;;;;;;21.22;60.37;100622.75;4381801;32;20212;-90
2022/03/25 11:11:08;;;;;;;;;;;;;;;21.19;60.37;100621.16;4394315;32;20434;-91
2022/03/25 11:13:34;;;;;;;;;;;;;;;21.40;60.39;100619.00;4394032;32;20021;-90
2022/03/25 11:15:59;;;;;;;;;;;;;;;21.55;60.39;100611.88;4381264;32;19997;-90
2022/03/25 11:18:27;;;;;;;;;;;;;;;21.68;60.39;100607.47;4393882;32;20320;-93
2022/03/25 11:20:52;;;;;;;;;;;;;;;21.71;60.41;100601.97;4394478;32;19970;-89
2022/03/25 11:23:25;;;;;;;;;;;;;;;21.55;60.39;100599.50;4394061;32;19994;-91
2022/03/25 11:25:51;;;;;;;;;;;;;;;21.75;60.40;100599.03;4394074;32;20669;-91
2022/03/25 11:28:17;;;;;;;;;;;;;;;21.68;60.39;100597.72;4393888;32;20015;-91
2022/03/25 11:30:42;;;;;;;;;;;;;;;21.68;60.40;100591.59;4393905;32;19989;-90
2022/03/25 11:33:07;;;;;;;;;;;;;;;21.72;60.40;100588.63;4407634;32;20336;-91
2022/03/25 11:35:33;;;;;;;;;;;;;;;21.63;60.40;100593.69;4406319;32;20013;-91
2022/03/25 11:38:11;;;;;;;;;;;;;;;21.84;60.40;100581.69;4394020;32;19985;-91
2022/03/25 11:40:44;;;;;;;;;;;;;;;22.13;60.42;100577.16;4406386;32;20028;-91
2022/03/25 11:43:22;;;;;;;;;;;;;;;22.07;60.41;100568.75;4381859;32;19989;-91
2022/03/25 11:45:59;;;;;;;;;;;;;;;22.03;60.42;100570.75;4393819;32;20006;-91
2022/03/25 11:48:25;;;;;;;;;;;;;;;22.19;60.42;100574.06;4406428;32;20350;-91
2022/03/25 11:50:50;;;;;;;;;;;;;;;22.29;60.43;100561.91;4406274;32;19986;-90
2022/03/25 11:53:16;;;;;;;;;;;;;;;22.33;60.43;100562.56;4393870;32;19990;-91
2022/03/25 11:56:00;;;;;;;;;;;;;;;22.67;60.45;100561.06;4406126;32;20036;-89
2022/03/25 11:58:26;;;;;;;;;;;;;;;22.31;60.44;100562.66;4393563;32;19981;-90
2022/03/25 12:00:52;;;;;;;;;;;;;;;21.92;60.40;100557.31;4393856;32;20042;-90
2022/03/25 12:03:17;;;;;;;;;;;;;;;21.89;60.41;100563.69;4393709;32;20101;-90
2022/03/25 12:06:03;;;;;;;;;;;;;;;21.65;60.40;100560.00;4380261;32;20351;-90
2022/03/25 12:08:29;;;;;;;;;;;;;;;21.44;60.39;100554.28;4381021;32;20348;-90
2022/03/25 12:10:55;;;;;;;;;;;;;;;21.63;60.40;100561.91;4393486;32;20317;-89
2022/03/25 12:13:21;;;;;;;;;;;;;;;21.28;60.37;100561.50;4393458;32;19990;-91
2022/03/25 12:15:46;;;;;;;;;;;;;;;21.12;60.37;100556.31;4393538;32;20419;-91
2022/03/25 12:18:30;;;;;;;;;;;;;;;20.98;60.35;100561.59;4393389;32;20004;-90
2022/03/25 12:20:56;;;;;;;;;;;;;;;21.03;60.36;100557.72;4393726;32;19978;-91
2022/03/25 12:23:21;;;;;;;;;;;;;;;21.15;60.37;100556.09;4393840;32;19997;-91
2022/03/25 12:25:46;;;;;;;;;;;;;;;21.21;60.36;100550.41;4393420;32;19986;-91
2022/03/25 12:28:11;;;;;;;;;;;;;;;21.23;60.38;100556.47;4407516;32;19996;-90
2022/03/25 12:30:37;;;;;;;;;;;;;;;21.40;60.39;100552.78;4406222;32;20012;-91
2022/03/25 12:33:05;;;;;;;;;;;;;;;21.59;60.39;100534.75;4393847;32;20101;-91
2022/03/25 12:35:30;;;;;;;;;;;;;;;21.64;60.40;100535.28;4393653;32;20331;-90
2022/03/25 12:37:55;;;;;;;;;;;;;;;21.20;60.37;100540.78;4393600;32;20008;-90
2022/03/25 12:40:25;;;;;;;;;;;;;;;21.20;60.37;100537.28;4407424;32;20318;-90
2022/03/25 12:42:50;;;;;;;;;;;;;;;21.32;60.38;100536.53;4405995;32;20037;-91
2022/03/25 12:45:16;;;;;;;;;;;;;;;21.25;60.38;100529.91;4406023;32;20272;-90
2022/03/25 12:47:43;;;;;;;;;;;;;;;21.30;60.38;100526.06;4393624;32;20511;-92
2022/03/25 12:50:08;;;;;;;;;;;;;;;21.48;60.38;100537.22;4393504;32;19985;-90
2022/03/25 12:52:33;;;;;;;;;;;;;;;21.39;60.39;100525.44;4407287;32;19990;-89
2022/03/25 12:55:09;;;;;;;;;;;;;;;21.38;60.39;100525.53;4380740;32;20002;-89
2022/03/25 12:57:35;;;;;;;;;;;;;;;21.29;60.37;100523.47;4393413;32;20447;-91
2022/03/25 13:00:00;;;;;;;;;;;;;;;21.23;60.38;100519.38;4380745;32;20638;-89
2022/03/25 13:02:35;;;;;;;;;;;;;;;21.27;60.38;100514.78;4393046;32;20053;-89
2022/03/25 13:05:07;;;;;;;;;;;;;;;21.32;60.38;100515.34;4393116;32;20383;-90
2022/03/25 13:07:33;;;;;;;;;;;;;;;21.30;60.38;100515.47;4407029;32;20347;-91
2022/03/25 13:09:59;;;;;;;;;;;;;;;21.06;60.36;100512.53;4393288;32;20051;-90
2022/03/25 13:12:31;;;;;;;;;;;;;;;21.07;60.37;100508.09;4393361;32;20040;-90
2022/03/25 13:14:56;;;;;;;;;;;;;;;21.20;60.37;100511.66;4405776;32;20695;-92